Time;durP1;ratioP1;P1;durP2;ratioP2;P2;SDS_P1;SDS_P2;PMS_P1;PMS_P2;Temp;Humidity;BMP_temperature;BMP_pressure;BME280_temperature;BME280_humidity;BME280_pressure;Samples;Min_cycle;Max_cycle;Signal;HPM_P1;HPM_P2
2023/07/01 00:01:48;;;;;;;15.03;13.60;;;;;;;18.88;100.00;-13434.47;6213489;23;20164;-63
2023/07/01 00:04:15;;;;;;;18.07;14.50;;;;;;;18.89;100.00;-13112.16;6213989;23;20500;-64
2023/07/01 00:06:42;;;;;;;14.67;13.53;;;;;;;19.01;100.00;-12791.44;6213646;23;20162;-63
2023/07/01 00:09:10;;;;;;;13.93;12.70;;;;;;;19.04;100.00;-13437.06;6213837;23;20492;-63
2023/07/01 00:11:37;;;;;;;10.60;9.73;;;;;;;19.01;100.00;-12468.88;6213757;23;20509;-64
2023/07/01 00:14:04;;;;;;;13.70;12.70;;;;;;;18.98;100.00;-11500.41;6214012;23;20185;-62
2023/07/01 00:16:31;;;;;;;12.03;11.23;;;;;;;18.85;100.00;-10853.28;6213851;23;20161;-62
2023/07/01 00:18:59;;;;;;;11.80;11.00;;;;;;;18.87;100.00;-10853.53;6213688;23;20158;-63
2023/07/01 00:21:26;;;;;;;11.37;10.60;;;;;;;18.76;100.00;-10852.28;6213507;23;20161;-64
2023/07/01 00:23:53;;;;;;;12.50;11.30;;;;;;;18.84;100.00;-11498.53;6213769;23;20174;-63
2023/07/01 00:26:19;;;;;;;13.83;11.87;;;;;;;18.43;100.00;-12460.50;6213817;23;20593;-64
2023/07/01 00:28:46;;;;;;;11.93;11.03;;;;;;;18.59;100.00;-12462.84;6213419;23;20158;-63
2023/07/01 00:31:13;;;;;;;10.33;9.43;;;;;;;18.68;100.00;-13109.03;6213402;23;20208;-64
2023/07/01 00:33:40;;;;;;;9.23;8.77;;;;;;;18.78;100.00;-13755.34;6213933;23;20162;-63
2023/07/01 00:36:08;;;;;;;10.60;9.90;;;;;;;18.61;100.00;-13107.94;6213747;23;20165;-63
2023/07/01 00:38:35;;;;;;;9.97;9.10;;;;;;;18.65;100.00;-13430.94;6213456;23;20177;-63
2023/07/01 00:41:02;;;;;;;8.60;8.00;;;;;;;18.62;100.00;-13108.09;6213851;23;20492;-63
2023/07/01 00:43:29;;;;;;;10.00;9.40;;;;;;;18.74;100.00;-12787.34;6213390;23;20169;-64
2023/07/01 00:45:56;;;;;;;10.23;9.53;;;;;;;18.61;100.00;-12463.13;6213306;23;20245;-64
2023/07/01 00:48:25;;;;;;;12.77;9.67;;;;;;;18.59;100.00;-11817.84;6213536;23;20166;-63
2023/07/01 00:50:53;;;;;;;10.17;9.37;;;;;;;18.24;100.00;-13746.53;6213782;23;20189;-63
2023/07/01 00:53:23;;;;;;;10.63;9.60;;;;;;;18.09;100.00;-13099.81;6213702;23;20162;-62
2023/07/01 00:55:49;;;;;;;9.77;9.13;;;;;;;18.18;100.00;-11812.38;6215417;23;20498;-64
2023/07/01 00:58:17;;;;;;;10.53;9.40;;;;;;;18.23;100.00;-12135.31;6215318;23;20197;-64
2023/07/01 01:00:44;;;;;;;9.97;8.63;;;;;;;18.37;100.00;-13104.19;6215515;23;20252;-63
2023/07/01 01:03:22;;;;;;;9.50;8.90;;;;;;;18.23;100.00;-13746.28;6215536;23;20157;-64
2023/07/01 01:06:00;;;;;;;8.33;7.73;;;;;;;18.36;100.00;-12781.69;6215448;23;20500;-64
2023/07/01 01:08:35;;;;;;;9.83;8.33;;;;;;;18.29;100.00;-10846.66;6214931;23;20157;-65
2023/07/01 01:11:04;;;;;;;8.20;7.80;;;;;;;18.47;100.00;-10526.31;6215425;23;20658;-63
2023/07/01 01:13:31;;;;;;;7.33;7.00;;;;;;;18.51;100.00;-11494.31;6215271;23;20158;-63
2023/07/01 01:15:59;;;;;;;7.93;7.33;;;;;;;18.05;100.00;-10199.16;6214962;23;20158;-64
2023/07/01 01:18:30;;;;;;;9.27;7.60;;;;;;;18.20;100.00;-10845.69;6214905;23;20160;-64
2023/07/01 01:20:58;;;;;;;9.17;8.13;;;;;;;18.06;100.00;-11166.31;6215106;23;20212;-63
2023/07/01 01:23:27;;;;;;;8.13;7.60;;;;;;;18.13;100.00;-12133.91;6215239;23;20489;-63
2023/07/01 01:26:05;;;;;;;8.10;7.40;;;;;;;18.18;100.00;-12779.13;6215181;23;20162;-63
2023/07/01 01:28:34;;;;;;;8.03;7.30;;;;;;;18.14;100.00;-11811.81;6215207;23;20173;-63
2023/07/01 01:31:01;;;;;;;7.87;7.30;;;;;;;18.14;100.00;-12456.25;6215107;23;20636;-63
2023/07/01 01:33:28;;;;;;;8.33;7.53;;;;;;;18.05;100.00;-13421.25;6214887;23;20165;-63
2023/07/01 01:36:10;;;;;;;8.23;7.47;;;;;;;18.10;100.00;-13744.19;6214800;23;20157;-63
2023/07/01 01:38:40;;;;;;;8.20;7.53;;;;;;;18.08;100.00;-13099.66;6215135;23;20181;-63
2023/07/01 01:41:10;;;;;;;7.50;7.10;;;;;;;18.12;100.00;-12778.22;6214619;23;20153;-64
2023/07/01 01:43:46;;;;;;;7.70;7.07;;;;;;;17.99;100.00;-11809.78;6214715;23;20168;-63
2023/07/01 01:46:16;;;;;;;8.80;7.73;;;;;;;17.57;100.00;-10838.19;6214679;23;20169;-63
2023/07/01 01:48:43;;;;;;;8.00;7.37;;;;;;;17.65;100.00;-13093.09;6214946;23;20461;-63
2023/07/01 01:51:10;;;;;;;7.87;7.30;;;;;;;17.67;100.00;-15024.16;6214496;23;20190;-63
2023/07/01 01:53:39;;;;;;;8.77;8.03;;;;;;;17.79;100.00;-15348.16;6214506;23;20236;-64
2023/07/01 01:56:07;;;;;;;8.97;8.27;;;;;;;17.75;100.00;-16312.38;6214482;23;20510;-63
2023/07/01 01:58:35;;;;;;;9.77;9.20;;;;;;;17.75;100.00;-15990.72;6214480;23;20201;-63
2023/07/01 02:01:03;;;;;;;9.63;8.77;;;;;;;17.92;100.00;-15672.25;6214934;23;20154;-63
2023/07/01 02:03:30;;;;;;;9.90;9.00;;;;;;;17.83;100.00;-13417.69;6214921;23;20211;-63
2023/07/01 02:05:57;;;;;;;9.30;8.70;;;;;;;17.71;100.00;-13415.91;6214467;23;20169;-63
2023/07/01 02:08:24;;;;;;;9.77;9.10;;;;;;;17.60;100.00;-13092.22;6214870;23;20158;-63
2023/07/01 02:10:51;;;;;;;12.70;8.80;;;;;;;17.64;100.00;-12127.09;6214585;23;20192;-63
2023/07/01 02:13:17;;;;;;;9.37;8.67;;;;;;;17.77;100.00;-12129.00;6214873;23;20158;-63
2023/07/01 02:15:44;;;;;;;9.23;8.47;;;;;;;17.68;100.00;-13415.44;6214494;23;20166;-63
2023/07/01 02:18:12;;;;;;;9.43;8.27;;;;;;;17.55;100.00;-14056.84;6214330;23;20168;-63
2023/07/01 02:20:39;;;;;;;8.67;8.20;;;;;;;17.54;100.00;-12447.66;6214733;23;20157;-63
2023/07/01 02:23:06;;;;;;;8.20;7.90;;;;;;;17.72;100.00;-11484.13;6214757;23;20192;-63
2023/07/01 02:25:33;;;;;;;8.57;7.73;;;;;;;17.79;100.00;-12773.31;6214595;23;20180;-63
2023/07/01 02:28:00;;;;;;;9.70;8.77;;;;;;;17.80;100.00;-13095.44;6214246;23;20158;-63
2023/07/01 02:30:27;;;;;;;11.27;9.13;;;;;;;17.83;100.00;-12773.75;6214291;23;20161;-63
2023/07/01 02:32:54;;;;;;;9.57;8.80;;;;;;;17.77;100.00;-13094.88;6214542;23;20569;-63
2023/07/01 02:35:22;;;;;;;9.23;8.67;;;;;;;17.84;100.00;-12451.88;6214573;23;20596;-62
2023/07/01 02:37:49;;;;;;;10.10;9.00;;;;;;;17.83;100.00;-11807.69;6214098;23;20188;-63
2023/07/01 02:40:16;;;;;;;11.20;8.77;;;;;;;17.68;100.00;-11805.66;6214520;23;20611;-62
2023/07/01 02:42:42;;;;;;;9.30;8.43;;;;;;;17.96;100.00;-11165.06;6214137;23;20154;-63
2023/07/01 02:45:10;;;;;;;9.07;8.27;;;;;;;18.03;100.00;-12132.50;6214117;23;20168;-64
2023/07/01 02:47:37;;;;;;;9.83;9.40;;;;;;;18.06;100.00;-12132.94;6213968;23;20481;-64
2023/07/01 02:50:05;;;;;;;11.47;10.40;;;;;;;18.08;100.00;-12133.28;6214090;23;20161;-63
2023/07/01 02:52:33;;;;;;;15.70;14.27;;;;;;;18.00;100.00;-11487.78;6214078;23;20185;-64
2023/07/01 02:55:00;;;;;;;15.77;14.60;;;;;;;18.17;100.00;-12134.47;6213995;23;20161;-64
2023/07/01 02:57:27;;;;;;;13.80;12.77;;;;;;;17.97;100.00;-10842.88;6213804;23;20209;-63
2023/07/01 02:59:54;;;;;;;14.13;12.83;;;;;;;17.96;100.00;-10842.75;6214229;23;20247;-63
2023/07/01 03:02:21;;;;;;;14.67;13.23;;;;;;;18.13;100.00;-10844.78;6213907;23;20166;-62
2023/07/01 03:04:47;;;;;;;16.73;15.17;;;;;;;18.15;100.00;-10845.03;6214258;23;20173;-63
2023/07/01 03:07:14;;;;;;;18.83;16.83;;;;;;;18.12;100.00;-10199.97;6214329;23;20600;-63
2023/07/01 03:09:43;;;;;;;25.30;18.03;;;;;;;18.23;100.00;-9878.69;6214028;23;20158;-63
2023/07/01 03:12:10;;;;;;;23.90;18.03;;;;;;;18.35;100.00;-8589.41;6213818;23;20189;-63
2023/07/01 03:14:37;;;;;;;20.70;17.73;;;;;;;18.59;100.00;-5038.56;6213888;23;20171;-63
2023/07/01 03:17:04;;;;;;;21.70;18.87;;;;;;;18.70;100.00;-1481.56;6213713;23;20166;-63
2023/07/01 03:19:31;;;;;;;25.67;17.60;;;;;;;19.37;100.00;5654.31;6214418;23;20592;-63
2023/07/01 03:21:58;;;;;;;15.97;14.50;;;;;;;20.17;100.00;30461.03;6214101;23;20154;-64
2023/07/01 03:24:33;;;;;;;14.60;13.17;;;;;;;21.21;100.00;74097.69;6213767;23;20187;-63
2023/07/01 03:27:02;;;;;;;14.87;12.23;;;;;;;21.84;100.00;128484.25;6214187;23;20504;-62
2023/07/01 03:29:29;;;;;;;12.83;11.70;;;;;;;21.56;100.00;147217.72;6214169;23;20512;-63
2023/07/01 03:31:56;;;;;;;12.57;11.65;;;;;;;21.34;100.00;144304.91;6214273;23;20571;-62
2023/07/01 03:34:24;;;;;;;16.13;11.65;;;;;;;21.07;100.00;136763.03;6187526;23;20180;-63
2023/07/01 03:36:51;;;;;;;17.98;12.00;;;;;;;21.26;100.00;128358.81;6213691;23;20161;-62
2023/07/01 03:39:18;;;;;;;20.98;11.48;;;;;;;21.26;100.00;128696.34;6214176;23;20614;-63
2023/07/01 03:41:48;;;;;;;17.55;11.65;;;;;;;21.26;100.00;140282.84;6214058;23;20154;-63
2023/07/01 03:44:16;;;;;;;12.75;10.52;;;;;;;21.42;100.00;142114.22;6187424;23;20162;-63
2023/07/01 03:46:43;;;;;;;25.30;9.98;;;;;;;21.39;100.00;150296.31;6213816;23;20157;-64
2023/07/01 03:49:11;;;;;;;20.33;10.48;;;;;;;21.32;100.00;149794.44;6213474;23;20161;-63
2023/07/01 03:51:38;;;;;;;21.45;11.68;;;;;;;21.88;100.00;151538.75;6213445;23;20177;-63
2023/07/01 03:54:04;;;;;;;18.25;10.95;;;;;;;22.07;100.00;151587.22;6213398;23;20172;-62
2023/07/01 03:56:32;;;;;;;15.80;9.48;;;;;;;22.39;100.00;151666.28;6213649;23;20169;-62
2023/07/01 03:58:59;;;;;;;14.40;9.27;;;;;;;22.55;100.00;151707.09;6213439;23;20613;-63
2023/07/01 04:01:29;;;;;;;13.40;8.85;;;;;;;22.80;100.00;151769.63;6213620;23;20154;-63
2023/07/01 04:03:56;;;;;;;9.43;8.38;;;;;;;23.02;100.00;151825.75;6212814;23;20612;-63
2023/07/01 04:06:23;;;;;;;14.07;8.63;;;;;;;23.23;100.00;151880.63;6213957;23;20608;-62
2023/07/01 04:08:54;;;;;;;42.80;9.23;;;;;;;23.32;100.00;151901.03;6213904;23;20478;-63
2023/07/01 04:11:21;;;;;;;19.40;9.18;;;;;;;23.60;100.00;151972.53;6213443;23;20158;-62
2023/07/01 04:13:49;;;;;;;10.45;7.55;;;;;;;23.79;100.00;152021.06;6213515;23;20173;-63
2023/07/01 04:16:15;;;;;;;8.07;7.43;;;;;;;23.94;100.00;152058.06;6213499;23;20161;-64
2023/07/01 04:18:44;;;;;;;10.13;8.57;;;;;;;23.87;100.00;152040.19;6213361;23;20158;-64
2023/07/01 04:21:11;;;;;;;8.73;8.23;;;;;;;23.93;100.00;152056.75;6187274;23;20470;-63
2023/07/01 04:23:37;;;;;;;10.88;9.80;;;;;;;23.98;100.00;152068.25;6213528;23;20639;-63
2023/07/01 04:26:05;;;;;;;14.00;12.57;;;;;;;23.96;100.00;152064.47;6213363;23;20162;-64
2023/07/01 04:28:32;;;;;;;19.65;16.98;;;;;;;23.81;100.00;152026.13;6213824;23;20161;-63
2023/07/01 04:30:59;;;;;;;20.48;18.55;;;;;;;23.90;100.00;152047.84;6215435;23;20488;-64
2023/07/01 04:33:26;;;;;;;27.30;21.92;;;;;;;23.85;100.00;152036.34;6215578;23;20599;-63
2023/07/01 04:35:54;;;;;;;28.83;23.10;;;;;;;23.67;100.00;151990.44;6215583;23;20165;-63
2023/07/01 04:38:21;;;;;;;34.33;25.65;;;;;;;23.96;100.00;152064.47;6215730;23;20623;-63
2023/07/01 04:40:48;;;;;;;34.58;29.17;;;;;;;24.10;100.00;152100.16;6215375;23;20166;-63
2023/07/01 04:43:14;;;;;;;54.15;37.13;;;;;;;24.02;100.00;152078.47;6215366;23;20190;-63
2023/07/01 04:45:42;;;;;;;53.38;38.13;;;;;;;24.01;100.00;152077.25;6215698;23;20584;-63
2023/07/01 04:48:09;;;;;;;54.95;39.10;;;;;;;24.09;100.00;152097.66;6215451;23;20164;-63
2023/07/01 04:50:36;;;;;;;53.00;38.08;;;;;;;24.24;100.00;152134.72;6215598;23;20161;-64
2023/07/01 04:53:05;;;;;;;48.75;36.10;;;;;;;24.37;100.00;152166.63;6215442;23;20204;-64
2023/07/01 04:55:32;;;;;;;41.15;33.47;;;;;;;24.16;100.00;152113.00;6215213;23;20165;-64
2023/07/01 04:57:58;;;;;;;50.33;31.92;;;;;;;24.35;100.00;152161.53;6215047;23;20212;-63
2023/07/01 05:00:25;;;;;;;39.05;30.27;;;;;;;24.26;100.00;152138.56;6215370;23;20584;-63
2023/07/01 05:02:52;;;;;;;31.42;26.60;;;;;;;24.70;100.00;152249.63;6215104;23;20161;-63
2023/07/01 05:05:19;;;;;;;39.20;30.67;;;;;;;24.73;100.00;152258.59;6215187;23;20161;-63
2023/07/01 05:07:46;;;;;;;35.97;29.45;;;;;;;24.77;100.00;152268.81;6215261;23;20469;-63
2023/07/01 05:10:14;;;;;;;49.15;29.17;;;;;;;25.05;100.00;152339.09;6215050;23;20236;-63
2023/07/01 05:12:41;;;;;;;33.88;26.30;;;;;;;25.18;100.00;152371.03;6215327;23;20647;-63
2023/07/01 05:15:09;;;;;;;30.52;25.60;;;;;;;25.55;100.00;152465.63;6215047;23;20169;-62
2023/07/01 05:17:36;;;;;;;32.78;26.25;;;;;;;25.79;100.00;152527.00;6214915;23;20193;-63
2023/07/01 05:20:04;;;;;;;33.03;27.13;;;;;;;25.96;100.00;152567.91;6215274;23;20589;-63
2023/07/01 05:22:31;;;;;;;34.17;27.05;;;;;;;26.07;100.00;152596.00;6214760;23;20153;-63
2023/07/01 05:24:58;;;;;;;38.15;26.35;;;;;;;26.17;100.00;152621.59;6214789;23;20230;-63
2023/07/01 05:27:27;;;;;;;28.38;22.95;;;;;;;26.26;100.00;152645.94;6188573;23;20168;-63
2023/07/01 05:29:54;;;;;;;29.30;21.02;;;;;;;26.69;100.00;152753.34;6214798;23;20161;-62
2023/07/01 05:32:21;;;;;;;35.92;22.92;;;;;;;26.85;100.00;152793.03;6214610;23;20181;-63
2023/07/01 05:34:47;;;;;;;42.28;23.65;;;;;;;27.02;100.00;152836.50;6214803;23;20168;-63
2023/07/01 05:37:14;;;;;;;44.72;23.77;;;;;;;27.23;100.00;152890.25;6215139;23;20169;-64
2023/07/01 05:39:41;;;;;;;37.35;23.75;;;;;;;27.42;100.00;152938.84;6215091;23;20164;-64
2023/07/01 05:42:08;;;;;;;29.42;22.58;;;;;;;27.47;100.00;152951.69;6214864;23;20158;-64
2023/07/01 05:44:37;;;;;;;25.40;21.55;;;;;;;27.41;100.00;152935.03;6215049;23;20600;-63
2023/07/01 05:47:04;;;;;;;22.90;20.90;;;;;;;27.87;100.00;153051.50;6215045;23;20238;-63
2023/07/01 05:49:31;;;;;;;28.73;20.23;;;;;;;27.81;100.00;153036.13;6214973;23;20237;-64
2023/07/01 05:51:58;;;;;;;26.02;18.30;;;;;;;28.33;100.00;153169.31;6214838;23;20653;-65
2023/07/01 05:54:24;;;;;;;18.25;16.70;;;;;;;28.57;100.00;153230.75;6214552;23;20245;-63
2023/07/01 05:56:51;;;;;;;38.63;18.98;;;;;;;28.78;100.00;153283.28;6214736;23;20192;-64
2023/07/01 05:59:18;;;;;;;20.90;15.07;;;;;;;28.74;100.00;153271.75;6214890;23;20496;-63
2023/07/01 06:01:46;;;;;;;23.52;14.35;;;;;;;29.18;100.00;153384.47;6214974;23;20154;-64
2023/07/01 06:04:13;;;;;;;12.80;10.50;;;;;;;29.48;100.00;153461.41;6214512;23;20150;-63
2023/07/01 06:06:40;;;;;;;14.85;10.43;;;;;;;29.63;100.00;153497.22;6214850;23;20531;-64
2023/07/01 06:09:09;;;;;;;13.07;7.97;;;;;;;30.07;100.00;153610.06;6214788;23;20623;-64
2023/07/01 06:11:36;;;;;;;9.75;8.27;;;;;;;30.51;100.00;153721.59;6214423;23;20164;-63
2023/07/01 06:14:03;;;;;;;14.98;7.25;;;;;;;30.98;96.64;153840.81;6214312;23;20228;-64
2023/07/01 06:16:30;;;;;;;9.90;6.70;;;;;;;31.15;93.59;153884.47;6214801;23;20584;-63
2023/07/01 06:18:58;;;;;;;10.30;6.95;;;;;;;30.81;93.61;153798.50;6214458;23;20157;-64
2023/07/01 06:21:26;;;;;;;7.78;6.20;;;;;;;30.89;92.32;153817.78;6214289;23;20158;-64
2023/07/01 06:23:57;;;;;;;6.97;5.80;;;;;;;31.41;91.87;153949.88;6187954;23;20154;-63
2023/07/01 06:26:24;;;;;;;9.05;8.43;;;;;;;32.13;95.17;154132.13;6214614;23;20162;-64
2023/07/01 06:28:51;;;;;;;8.50;8.02;;;;;;;32.69;88.67;154274.63;6214338;23;20172;-63
2023/07/01 06:31:18;;;;;;;8.68;7.90;;;;;;;33.23;89.40;154410.78;6214573;23;20161;-63
2023/07/01 06:33:46;;;;;;;7.45;6.85;;;;;;;33.75;81.94;154544.31;6214146;23;20182;-63
2023/07/01 06:36:15;;;;;;;11.38;9.50;;;;;;;33.83;87.02;154564.88;6214399;23;20165;-62
2023/07/01 06:38:42;;;;;;;17.15;8.18;;;;;;;34.21;87.28;154659.97;6214450;23;20614;-64
2023/07/01 06:41:09;;;;;;;19.65;8.95;;;;;;;34.11;86.37;154634.25;6214094;23;20197;-63
2023/07/01 06:43:38;;;;;;;11.13;8.68;;;;;;;34.00;85.90;154605.97;6214471;23;20153;-64
2023/07/01 06:46:08;;;;;;;10.05;7.70;;;;;;;34.16;86.36;154648.41;6214131;23;20186;-63
2023/07/01 06:48:35;;;;;;;8.70;8.13;;;;;;;33.68;87.95;154526.38;6214407;23;20252;-64
2023/07/01 06:51:04;;;;;;;10.25;7.63;;;;;;;32.90;94.05;154328.53;6214134;23;20158;-64
2023/07/01 06:53:32;;;;;;;10.52;6.85;;;;;;;32.96;86.78;154343.97;6213705;23;20182;-64
2023/07/01 06:55:59;;;;;;;8.73;5.10;;;;;;;33.17;81.73;154395.34;6214097;23;20212;-64
2023/07/01 06:58:26;;;;;;;5.35;5.15;;;;;;;33.34;73.94;154439.00;6213934;23;20286;-64
2023/07/01 07:00:53;;;;;;;3.38;3.13;;;;;;;33.96;59.82;154598.28;6214144;23;20169;-63
2023/07/01 07:03:20;;;;;;;3.20;3.00;;;;;;;34.25;58.49;154671.53;6214427;23;20552;-63
2023/07/01 07:05:47;;;;;;;2.58;2.35;;;;;;;33.99;56.13;154603.44;6214213;23;20253;-63
2023/07/01 07:08:13;;;;;;;2.08;2.03;;;;;;;33.25;58.06;154417.16;6214002;23;20157;-64
2023/07/01 07:10:42;;;;;;;2.33;2.22;;;;;;;32.76;61.23;154291.34;6213979;23;20165;-64
2023/07/01 07:13:10;;;;;;;2.78;2.67;;;;;;;32.49;64.78;154223.25;6214165;23;20197;-63
2023/07/01 07:15:38;;;;;;;4.05;2.60;;;;;;;32.81;67.15;154305.41;6213886;23;20165;-63
2023/07/01 07:18:07;;;;;;;3.30;3.00;;;;;;;32.71;71.93;154278.50;6213871;23;20233;-64
2023/07/01 07:20:34;;;;;;;7.18;3.30;;;;;;;32.88;67.54;154323.44;6213818;23;20165;-63
2023/07/01 07:23:01;;;;;;;2.30;2.30;;;;;;;32.68;62.67;154272.03;6213804;23;20161;-64
2023/07/01 07:25:28;;;;;;;2.90;2.75;;;;;;;32.61;63.57;154254.03;6213655;23;20162;-64
2023/07/01 07:27:57;;;;;;;2.75;2.42;;;;;;;32.75;65.91;154290.03;6214124;23;20157;-64
2023/07/01 07:30:23;;;;;;;3.05;2.75;;;;;;;32.91;63.97;154329.81;6213782;23;20169;-64
2023/07/01 07:32:52;;;;;;;2.75;2.65;;;;;;;32.64;61.06;154261.78;6187772;23;20521;-64
2023/07/01 07:35:19;;;;;;;3.35;3.15;;;;;;;32.89;60.67;154325.94;6214069;23;20153;-63
2023/07/01 07:37:46;;;;;;;4.05;2.92;;;;;;;32.69;62.06;154274.63;6213672;23;20173;-64
2023/07/01 07:40:13;;;;;;;2.70;2.60;;;;;;;32.70;62.39;154277.19;6213514;23;20164;-63
2023/07/01 07:42:41;;;;;;;4.13;2.80;;;;;;;32.29;65.41;154171.94;6213687;23;20161;-63
2023/07/01 07:45:12;;;;;;;2.72;2.63;;;;;;;32.04;63.73;154110.25;6213926;23;20534;-63
2023/07/01 07:47:39;;;;;;;5.53;2.70;;;;;;;32.08;69.33;154119.28;6213948;23;20157;-65
2023/07/01 07:50:07;;;;;;;4.22;3.10;;;;;;;31.96;70.05;154089.72;6213498;23;20172;-64
2023/07/01 07:52:33;;;;;;;2.70;2.63;;;;;;;31.69;72.42;154021.78;6213494;23;20244;-63
2023/07/01 07:55:00;;;;;;;3.90;3.60;;;;;;;31.67;78.69;154015.34;6213996;23;20215;-64
2023/07/01 07:57:27;;;;;;;3.47;3.35;;;;;;;31.82;81.15;154053.84;6213832;23;20212;-63
2023/07/01 07:59:54;;;;;;;3.22;2.97;;;;;;;30.69;91.07;153766.47;6214019;23;20592;-63
2023/07/01 08:02:22;;;;;;;3.30;3.20;;;;;;;30.74;89.21;153779.28;6213544;23;20172;-64
2023/07/01 08:04:49;;;;;;;3.92;3.60;;;;;;;30.68;93.51;153765.16;6215562;23;20488;-63
2023/07/01 08:07:16;;;;;;;5.90;3.35;;;;;;;30.61;93.40;153745.94;6215644;23;20166;-64
2023/07/01 08:09:43;;;;;;;3.70;3.50;;;;;;;30.15;96.02;153630.56;6215647;23;20168;-64
2023/07/01 08:12:11;;;;;;;3.60;3.50;;;;;;;30.15;96.43;153630.56;6216044;23;20212;-63
2023/07/01 08:14:37;;;;;;;3.47;3.28;;;;;;;30.25;94.18;153654.94;6215896;23;20592;-64
2023/07/01 08:17:05;;;;;;;3.08;2.88;;;;;;;30.31;92.22;153671.56;6189235;23;20165;-64
2023/07/01 08:19:33;;;;;;;3.60;3.30;;;;;;;30.21;92.14;153644.66;6215889;23;20165;-64
2023/07/01 08:22:00;;;;;;;3.08;2.97;;;;;;;29.68;97.90;153510.06;6215659;23;20164;-64
2023/07/01 08:24:27;;;;;;;2.88;2.78;;;;;;;29.67;98.98;153507.47;6215537;23;20233;-63
2023/07/01 08:26:55;;;;;;;3.08;2.97;;;;;;;29.58;100.00;153484.47;6215507;23;20158;-64
2023/07/01 08:29:21;;;;;;;3.33;3.22;;;;;;;29.04;100.00;153348.59;6215462;23;20249;-63
2023/07/01 08:31:50;;;;;;;3.47;3.38;;;;;;;28.92;100.00;153317.88;6215519;23;20201;-63
2023/07/01 08:34:17;;;;;;;3.45;3.35;;;;;;;29.21;100.00;153392.16;6215415;23;20211;-64
2023/07/01 08:36:45;;;;;;;3.58;3.47;;;;;;;29.04;100.00;153348.59;6215402;23;20244;-64
2023/07/01 08:39:12;;;;;;;3.65;3.47;;;;;;;29.30;98.93;153415.25;6189133;23;20188;-64
2023/07/01 08:41:51;;;;;;;3.00;2.90;;;;;;;29.70;92.28;153516.50;6215743;23;20187;-64
2023/07/01 08:44:19;;;;;;;3.30;3.20;;;;;;;29.60;95.03;153490.84;6215281;23;20220;-64
2023/07/01 08:46:48;;;;;;;3.75;3.65;;;;;;;29.65;93.73;153502.38;6215316;23;20165;-65
2023/07/01 08:49:20;;;;;;;4.35;3.28;;;;;;;29.63;92.67;153498.53;6215580;23;20497;-64
2023/07/01 08:51:52;;;;;;;3.38;3.17;;;;;;;29.29;87.42;153411.41;6215336;23;20161;-64
2023/07/01 08:54:20;;;;;;;4.82;3.10;;;;;;;29.43;89.09;153447.28;6214988;23;20186;-64
2023/07/01 08:56:48;;;;;;;3.00;2.85;;;;;;;29.99;86.28;153589.56;6215297;23;20177;-65
2023/07/01 08:59:16;;;;;;;3.33;3.20;;;;;;;29.13;87.77;153371.66;6215444;23;20162;-64
2023/07/01 09:01:43;;;;;;;2.63;2.63;;;;;;;29.46;90.29;153454.97;6215018;23;20199;-63
2023/07/01 09:04:13;;;;;;;3.58;3.38;;;;;;;29.86;86.78;153556.19;6215165;23;20567;-63
2023/07/01 09:06:39;;;;;;;3.10;2.90;;;;;;;29.54;83.30;153474.16;6215824;23;20593;-64
2023/07/01 09:09:08;;;;;;;3.20;2.97;;;;;;;29.83;86.67;153548.50;6215402;23;20672;-64
2023/07/01 09:11:35;;;;;;;3.10;2.97;;;;;;;29.75;92.79;153527.97;6214973;23;20157;-64
2023/07/01 09:14:03;;;;;;;3.97;3.30;;;;;;;29.17;96.21;153381.91;6214835;23;20185;-64
2023/07/01 09:16:33;;;;;;;3.15;3.05;;;;;;;29.22;87.06;153393.44;6215422;23;20169;-63
2023/07/01 09:19:08;;;;;;;3.15;3.05;;;;;;;29.14;86.82;153372.94;6214925;23;20224;-65
2023/07/01 09:21:35;;;;;;;3.50;3.30;;;;;;;28.85;87.56;153299.97;6214839;23;20164;-65
2023/07/01 09:24:05;;;;;;;3.35;3.15;;;;;;;28.89;91.73;153311.50;6214839;23;20555;-65
2023/07/01 09:26:34;;;;;;;3.60;3.47;;;;;;;28.93;91.80;153320.44;6214995;23;20162;-63
2023/07/01 09:29:08;;;;;;;3.28;3.17;;;;;;;29.04;95.60;153348.59;6215344;23;20158;-63
2023/07/01 09:31:45;;;;;;;4.63;3.53;;;;;;;28.72;98.21;153266.66;6215344;23;20161;-65
2023/07/01 09:34:12;;;;;;;3.90;3.70;;;;;;;28.62;100.00;153242.28;6214547;23;20189;-64
2023/07/01 09:36:39;;;;;;;3.55;3.45;;;;;;;28.60;100.00;153238.41;6214789;23;20165;-64
2023/07/01 09:39:06;;;;;;;3.35;3.25;;;;;;;28.58;97.61;153233.31;6214746;23;20162;-64
2023/07/01 09:41:34;;;;;;;3.40;3.30;;;;;;;28.48;100.00;153207.69;6215110;23;20484;-63
2023/07/01 09:44:01;;;;;;;3.40;3.20;;;;;;;28.43;100.00;153194.88;6214701;23;20161;-65
2023/07/01 09:46:42;;;;;;;3.75;3.65;;;;;;;28.38;100.00;153182.13;6214915;23;20154;-64
2023/07/01 09:49:09;;;;;;;3.78;3.60;;;;;;;28.12;100.00;153115.56;6214586;23;20268;-64
2023/07/01 09:51:46;;;;;;;4.00;3.70;;;;;;;28.33;100.00;153169.31;6214973;23;20157;-64
2023/07/01 09:54:25;;;;;;;3.65;3.55;;;;;;;28.54;100.00;153223.09;6215068;23;20512;-64
2023/07/01 09:56:54;;;;;;;3.60;3.50;;;;;;;28.66;100.00;153252.50;6214569;22;20188;-65
2023/07/01 09:59:21;;;;;;;4.00;3.80;;;;;;;29.35;100.00;153426.78;6214819;23;20166;-63
2023/07/01 10:01:50;;;;;;;3.65;3.50;;;;;;;29.96;100.00;153581.84;6215819;23;20549;-64
2023/07/01 10:04:19;;;;;;;3.60;3.40;;;;;;;30.05;100.00;153604.91;6214628;23;20154;-64
2023/07/01 10:06:46;;;;;;;3.25;3.15;;;;;;;29.39;100.00;153437.03;6214487;23;20194;-64
2023/07/01 10:09:12;;;;;;;4.05;3.75;;;;;;;29.78;100.00;153535.69;6214525;23;20157;-64
2023/07/01 10:11:40;;;;;;;3.95;3.83;;;;;;;29.92;100.00;153572.88;6214516;23;20162;-64
2023/07/01 10:14:10;;;;;;;4.28;3.92;;;;;;;30.09;100.00;153613.88;6214838;23;20187;-63
2023/07/01 10:16:47;;;;;;;4.15;3.80;;;;;;;29.40;100.00;153439.63;6214453;23;20261;-64
2023/07/01 10:19:27;;;;;;;4.18;3.97;;;;;;;29.27;100.00;153407.53;6214383;23;20169;-64
2023/07/01 10:21:55;;;;;;;3.90;3.67;;;;;;;29.00;100.00;153339.66;6214810;23;20239;-65
2023/07/01 10:24:38;;;;;;;3.78;3.67;;;;;;;28.82;100.00;153292.25;6214821;23;20244;-64
2023/07/01 10:27:05;;;;;;;5.60;4.20;;;;;;;29.26;100.00;153404.97;6213847;23;20618;-64
2023/07/01 10:29:56;;;;;;;3.92;3.83;;;;;;;29.05;100.00;153352.47;6214343;23;20169;-65
2023/07/01 10:32:32;;;;;;;3.92;3.63;;;;;;;29.24;100.00;153399.81;6214223;23;20166;-65
2023/07/01 10:35:14;;;;;;;4.80;4.00;;;;;;;29.02;100.00;153343.50;6214245;23;20181;-64
2023/07/01 10:37:42;;;;;;;4.25;3.55;;;;;;;29.23;100.00;153397.28;6188232;23;20188;-64
2023/07/01 10:40:44;;;;;;;4.32;3.95;;;;;;;29.22;100.00;153394.72;6214531;23;20536;-64
2023/07/01 10:43:25;;;;;;;3.88;3.78;;;;;;;29.13;100.00;153370.38;6214292;23;20160;-64
2023/07/01 10:46:11;;;;;;;7.22;4.00;;;;;;;29.02;100.00;153343.50;6214009;23;20173;-64
2023/07/01 10:48:39;;;;;;;4.15;3.78;;;;;;;29.00;100.00;153338.38;6214076;23;20219;-65
2023/07/01 10:51:06;;;;;;;3.60;3.50;;;;;;;28.89;96.06;153310.22;6214062;23;20168;-64
2023/07/01 10:53:58;;;;;;;4.05;3.75;;;;;;;28.52;100.00;153217.94;6214422;23;20628;-64
2023/07/01 10:56:25;;;;;;;4.18;4.00;;;;;;;28.39;100.00;153184.66;6214038;23;20177;-64
2023/07/01 10:59:20;;;;;;;4.45;4.15;;;;;;;28.42;100.00;153192.34;6214024;23;20208;-64
2023/07/01 11:01:50;;;;;;;4.72;4.43;;;;;;;28.24;100.00;153146.25;6214136;23;20193;-65
2023/07/01 11:04:19;;;;;;;5.10;4.68;;;;;;;27.91;100.00;153061.75;6214391;23;20556;-64
2023/07/01 11:06:49;;;;;;;4.57;4.38;;;;;;;28.14;100.00;153121.94;6214062;23;20211;-65
2023/07/01 11:09:27;;;;;;;4.75;4.45;;;;;;;28.07;100.00;153102.69;6213140;23;20191;-65
2023/07/01 11:11:54;;;;;;;4.63;4.28;;;;;;;27.98;100.00;153079.66;6214286;23;20161;-64
2023/07/01 11:14:29;;;;;;;4.63;4.32;;;;;;;27.77;100.00;153025.91;6213846;23;20181;-63
2023/07/01 11:17:05;;;;;;;4.82;4.65;;;;;;;27.82;100.00;153038.69;6214204;23;20596;-64
2023/07/01 11:19:32;;;;;;;4.90;4.68;;;;;;;27.58;100.00;152978.56;6213804;23;20219;-65
2023/07/01 11:21:59;;;;;;;5.25;4.95;;;;;;;27.56;100.00;152974.72;6214142;23;20215;-65